createdAt,value
2023-03-07T00:03:23.678Z,29.30
2023-03-07T00:08:25.092Z,29.40
2023-03-07T00:13:26.511Z,29.50
2023-03-07T00:18:27.914Z,29.70
2023-03-07T00:23:29.322Z,29.80
2023-03-07T00:28:30.720Z,30.00
2023-03-07T00:33:32.298Z,30.00
2023-03-07T00:38:33.708Z,30.20
2023-03-07T00:43:35.122Z,30.50
2023-03-07T00:48:36.538Z,30.70
2023-03-07T00:53:38.012Z,30.80
2023-03-07T00:58:39.455Z,31.00
2023-03-07T01:03:40.853Z,31.20
2023-03-07T01:08:42.265Z,31.30
2023-03-07T01:13:43.678Z,31.40
2023-03-07T01:18:45.087Z,31.50
2023-03-07T01:23:46.528Z,31.60
2023-03-07T01:28:47.978Z,31.80
2023-03-07T01:33:49.396Z,31.80
2023-03-07T01:38:50.794Z,31.90
2023-03-07T01:43:52.201Z,32.00
2023-03-07T01:48:53.609Z,32.10
2023-03-07T01:53:55.031Z,32.10
2023-03-07T01:58:56.445Z,32.30
2023-03-07T02:03:57.893Z,32.30
2023-03-07T02:08:59.331Z,32.30
2023-03-07T02:14:00.733Z,32.40
2023-03-07T02:19:02.159Z,32.40
2023-03-07T02:24:03.582Z,32.40
2023-03-07T02:29:04.995Z,32.50
2023-03-07T02:34:06.463Z,32.50
2023-03-07T02:39:07.922Z,32.50
2023-03-07T02:44:09.342Z,32.60
2023-03-07T02:49:10.781Z,32.50
2023-03-07T02:54:12.246Z,32.60
2023-03-07T02:59:13.684Z,32.60
2023-03-07T03:04:15.200Z,32.60
2023-03-07T03:09:16.625Z,32.60
2023-03-07T03:14:18.024Z,32.70
2023-03-07T03:19:19.434Z,32.70
2023-03-07T03:24:20.838Z,32.70
2023-03-07T03:29:22.247Z,32.70
2023-03-07T03:34:23.658Z,32.70
2023-03-07T03:39:25.100Z,32.80
2023-03-07T03:44:26.502Z,32.70
2023-03-07T03:49:27.908Z,32.80
2023-03-07T03:54:29.312Z,32.80
2023-03-07T03:59:30.738Z,32.80
2023-03-07T04:04:32.159Z,32.80
2023-03-07T04:09:33.617Z,32.80
2023-03-07T04:14:35.009Z,32.80
2023-03-07T04:19:36.415Z,32.80
2023-03-07T04:24:37.820Z,32.80
2023-03-07T04:29:39.224Z,32.90
2023-03-07T04:34:40.625Z,32.80
2023-03-07T04:39:42.035Z,32.80
2023-03-07T04:44:43.469Z,32.90
2023-03-07T04:49:44.892Z,32.90
2023-03-07T04:54:46.315Z,32.90
2023-03-07T04:59:47.788Z,32.90
2023-03-07T05:04:49.189Z,32.80
2023-03-07T05:09:50.595Z,33.00
2023-03-07T05:14:52.138Z,32.90
2023-03-07T05:19:53.549Z,32.90
2023-03-07T05:24:55.032Z,32.90
2023-03-07T05:29:56.462Z,32.90
2023-03-07T05:34:57.872Z,32.90
2023-03-07T05:39:59.286Z,33.00
2023-03-07T05:45:00.689Z,33.00
2023-03-07T05:50:02.149Z,32.90
2023-03-07T05:55:03.595Z,32.90
2023-03-07T06:00:05.042Z,33.00
2023-03-07T06:05:06.459Z,33.00
2023-03-07T06:10:07.865Z,32.90
2023-03-07T06:15:09.278Z,32.90
2023-03-07T06:20:10.683Z,33.00
2023-03-07T06:25:12.100Z,33.00
2023-03-07T06:30:13.556Z,32.90
2023-03-07T06:35:14.959Z,32.80
2023-03-07T06:40:16.362Z,33.00
2023-03-07T06:45:17.817Z,33.00
2023-03-07T06:50:26.454Z,33.00
2023-03-07T06:55:31.369Z,33.00
2023-03-07T07:00:32.783Z,33.00
2023-03-07T07:05:34.231Z,33.00
2023-03-07T07:10:35.662Z,33.00
2023-03-07T07:15:37.095Z,33.00
2023-03-07T07:20:38.512Z,33.00
2023-03-07T07:25:39.980Z,33.00
2023-03-07T07:30:41.423Z,33.00
2023-03-07T07:35:42.849Z,33.00
2023-03-07T07:40:44.303Z,33.00
2023-03-07T07:45:45.760Z,33.00
2023-03-07T07:50:47.295Z,33.00
2023-03-07T07:55:48.758Z,33.00
2023-03-07T08:00:50.235Z,33.00
2023-03-07T08:05:51.680Z,33.00
2023-03-07T08:10:53.111Z,33.00
2023-03-07T08:15:54.560Z,33.00
2023-03-07T08:20:56.014Z,33.00
2023-03-07T08:25:57.426Z,33.00
2023-03-07T08:30:58.843Z,33.00
2023-03-07T08:36:00.299Z,33.00
2023-03-07T08:41:01.724Z,33.00
2023-03-07T08:46:03.194Z,33.00
2023-03-07T08:51:04.607Z,33.00
2023-03-07T08:56:05.997Z,33.00
2023-03-07T09:01:07.461Z,33.00
2023-03-07T09:06:08.864Z,33.00
2023-03-07T09:11:10.289Z,33.00
2023-03-07T09:16:11.761Z,33.00
2023-03-07T09:21:13.237Z,32.90
2023-03-07T09:26:14.658Z,33.00
2023-03-07T09:31:16.245Z,33.00
2023-03-07T09:36:17.685Z,33.00
2023-03-07T09:41:19.106Z,33.00
2023-03-07T09:46:20.515Z,33.60
2023-03-07T09:51:21.935Z,33.00
2023-03-07T09:56:23.369Z,33.00
2023-03-07T10:01:24.776Z,33.00
2023-03-07T10:06:26.215Z,33.00
2023-03-07T10:11:27.661Z,33.00
2023-03-07T10:16:29.158Z,33.00
2023-03-07T10:21:30.903Z,33.00
2023-03-07T10:26:32.333Z,33.00
2023-03-07T10:31:33.789Z,33.00
2023-03-07T10:36:35.286Z,33.00
2023-03-07T10:41:36.758Z,33.00
2023-03-07T10:46:46.939Z,33.00
2023-03-07T10:51:55.098Z,33.60
2023-03-07T10:56:56.513Z,33.00
2023-03-07T11:01:57.932Z,32.90
2023-03-07T11:06:59.332Z,32.90
2023-03-07T11:12:00.762Z,32.90
2023-03-07T11:17:02.189Z,32.90
2023-03-07T11:22:03.615Z,32.90
2023-03-07T11:27:05.048Z,32.90
2023-03-07T11:32:06.548Z,33.00
2023-03-07T11:37:08.004Z,33.00
2023-03-07T11:42:09.465Z,32.90
2023-03-07T11:47:10.886Z,32.90
2023-03-07T11:52:12.329Z,33.00
2023-03-07T11:57:13.771Z,33.00
2023-03-07T12:02:15.304Z,33.70
2023-03-07T12:07:16.712Z,33.00
2023-03-07T12:12:18.138Z,33.00
2023-03-07T12:17:19.651Z,33.00
2023-03-07T12:22:21.074Z,33.00
2023-03-07T12:27:23.615Z,33.00
2023-03-07T12:32:26.031Z,33.00
2023-03-07T12:37:27.579Z,33.00
2023-03-07T12:42:29.110Z,33.00
2023-03-07T12:47:30.545Z,33.00
2023-03-07T12:52:31.990Z,33.00
2023-03-07T12:57:33.414Z,32.90
2023-03-07T13:02:34.830Z,32.80
2023-03-07T13:07:36.270Z,32.90
2023-03-07T13:12:37.709Z,32.90
2023-03-07T13:17:39.118Z,32.90
2023-03-07T13:22:40.542Z,32.90
2023-03-07T13:27:41.997Z,32.90
2023-03-07T13:32:43.407Z,32.90
2023-03-07T13:37:44.822Z,32.90
2023-03-07T13:42:46.265Z,32.90
2023-03-07T13:47:47.695Z,32.90
2023-03-07T13:52:49.116Z,32.90
2023-03-07T13:57:51.291Z,32.90
2023-03-07T14:02:52.698Z,32.90
2023-03-07T14:07:54.140Z,32.90
2023-03-07T14:12:55.596Z,33.00
2023-03-07T14:17:57.049Z,32.90
2023-03-07T14:22:58.492Z,32.90
2023-03-07T14:27:59.904Z,32.90
2023-03-07T14:33:02.374Z,32.90
2023-03-07T14:38:03.785Z,32.90
2023-03-07T14:43:05.194Z,32.90
2023-03-07T14:48:06.589Z,32.90
2023-03-07T14:53:08.053Z,33.00
2023-03-07T14:58:09.480Z,33.00
2023-03-07T15:03:10.937Z,33.00
2023-03-07T15:08:12.537Z,33.00
2023-03-07T15:13:13.991Z,33.00
2023-03-07T15:18:15.410Z,33.00
2023-03-07T15:23:16.824Z,33.00
2023-03-07T15:28:18.277Z,33.00
2023-03-07T15:33:19.754Z,33.00
2023-03-07T15:38:21.175Z,33.60
2023-03-07T15:43:22.603Z,33.20
2023-03-07T15:48:24.024Z,33.10
2023-03-07T15:53:25.432Z,33.80
2023-03-07T15:58:26.832Z,34.20
2023-03-07T16:03:28.405Z,33.60
2023-03-07T16:08:30.022Z,34.30
2023-03-07T16:13:31.487Z,35.10
2023-03-07T16:18:32.987Z,35.40
2023-03-07T16:23:34.395Z,35.10
2023-03-07T16:28:35.890Z,35.30
2023-03-07T16:33:38.354Z,34.80
2023-03-07T16:38:40.134Z,35.00
2023-03-07T16:43:41.578Z,35.00
2023-03-07T16:48:43.022Z,35.00
2023-03-07T16:53:44.442Z,35.00
2023-03-07T16:58:45.856Z,34.70
2023-03-07T17:03:47.299Z,34.40
2023-03-07T17:08:48.714Z,34.80
2023-03-07T17:13:50.148Z,34.70
2023-03-07T17:18:51.648Z,35.00
2023-03-07T17:23:53.142Z,34.90
2023-03-07T17:28:54.682Z,35.10
2023-03-07T17:33:56.201Z,35.10
2023-03-07T17:38:57.623Z,35.60
2023-03-07T17:43:59.018Z,35.90
2023-03-07T17:49:00.452Z,36.00
2023-03-07T17:54:01.872Z,36.00
2023-03-07T17:59:03.284Z,36.10
2023-03-07T18:04:04.712Z,36.20
2023-03-07T18:09:06.127Z,36.10
2023-03-07T18:14:07.634Z,36.20
2023-03-07T18:19:20.460Z,37.00
2023-03-07T18:24:26.897Z,37.40
2023-03-07T18:29:28.304Z,37.50
2023-03-07T18:34:29.703Z,37.30
2023-03-07T18:39:31.345Z,37.20
2023-03-07T18:44:32.755Z,37.00
2023-03-07T18:49:34.190Z,36.80
2023-03-07T18:54:35.591Z,36.70
2023-03-07T18:59:37.011Z,36.20
2023-03-07T19:04:38.426Z,36.00
2023-03-07T19:09:39.848Z,35.90
2023-03-07T19:14:41.271Z,35.90
2023-03-07T19:19:42.686Z,35.90
2023-03-07T19:24:44.086Z,36.40
2023-03-07T19:29:45.501Z,36.60
2023-03-07T19:34:46.910Z,36.70
2023-03-07T19:39:48.317Z,36.50
2023-03-07T19:44:49.716Z,36.40
2023-03-07T19:49:51.134Z,36.20
2023-03-07T19:54:52.544Z,36.10
2023-03-07T19:59:54.008Z,35.90
2023-03-07T20:04:55.415Z,35.80
2023-03-07T20:09:56.837Z,35.70
2023-03-07T20:14:58.380Z,35.50
2023-03-07T20:19:59.800Z,35.30
2023-03-07T20:25:01.214Z,35.30
2023-03-07T20:30:02.639Z,35.20
2023-03-07T20:35:04.049Z,35.10
2023-03-07T20:40:05.471Z,35.00
2023-03-07T20:45:06.899Z,35.00
2023-03-07T20:50:08.328Z,34.90
2023-03-07T20:55:09.728Z,34.80
2023-03-07T21:00:11.133Z,34.80
2023-03-07T21:05:12.541Z,34.70
2023-03-07T21:10:13.973Z,34.70
2023-03-07T21:15:15.396Z,34.60
2023-03-07T21:20:16.808Z,34.60
2023-03-07T21:25:18.206Z,34.60
2023-03-07T21:30:19.612Z,34.60
2023-03-07T21:35:21.011Z,34.60
2023-03-07T21:40:22.448Z,34.50
2023-03-07T21:45:25.553Z,34.50
2023-03-07T21:50:27.208Z,34.50
2023-03-07T21:55:28.629Z,34.40
2023-03-07T22:00:30.038Z,34.40
2023-03-07T22:05:31.470Z,34.40
2023-03-07T22:10:32.866Z,34.40
2023-03-07T22:15:34.293Z,34.30
2023-03-07T22:20:35.713Z,34.30
2023-03-07T22:25:37.105Z,34.30
2023-03-07T22:30:38.618Z,34.30
2023-03-07T22:35:40.037Z,34.20
2023-03-07T22:40:41.482Z,34.20
2023-03-07T22:45:42.999Z,34.20
2023-03-07T22:50:44.465Z,34.20
2023-03-07T22:55:45.897Z,34.10
2023-03-07T23:00:47.307Z,34.10
2023-03-07T23:05:48.727Z,34.10
2023-03-07T23:10:50.135Z,34.20
2023-03-07T23:15:51.567Z,34.20
2023-03-07T23:20:53.118Z,34.20
2023-03-07T23:25:54.524Z,34.10
2023-03-07T23:30:56.004Z,34.10
2023-03-07T23:35:57.502Z,34.10
2023-03-07T23:40:59.039Z,34.10
2023-03-07T23:46:00.514Z,34.00
2023-03-07T23:51:01.973Z,34.00
2023-03-07T23:56:03.383Z,34.00
